createdAt,value
2019-02-09T00:03:49.512Z,99174.61
2019-02-09T00:06:17.880Z,99175.11
2019-02-09T00:09:05.508Z,99166.73
2019-02-09T00:11:53.128Z,99155.01
2019-02-09T00:14:40.736Z,99160.41
2019-02-09T00:17:28.456Z,99159.09
2019-02-09T00:19:56.877Z,99152.02
2019-02-09T00:22:25.257Z,99156.08
2019-02-09T00:25:12.752Z,99143.51
2019-02-09T00:27:41.367Z,99147.84
2019-02-09T00:30:49.651Z,99141.96
2019-02-09T00:33:18.192Z,99135.02
2019-02-09T00:36:05.806Z,99134.28
2019-02-09T00:38:34.196Z,99128.55
2019-02-09T00:41:02.569Z,99129.26
2019-02-09T00:43:30.947Z,99127.95
2019-02-09T00:46:18.570Z,99117.39
2019-02-09T00:48:46.946Z,99116.56
2019-02-09T00:51:34.457Z,99108.08
2019-02-09T00:54:02.801Z,99118.72
2019-02-09T00:57:11.078Z,99111.03
2019-02-09T00:59:39.526Z,99108.30
2019-02-09T01:02:27.229Z,99105.19
2019-02-09T01:04:55.607Z,99101.72
2019-02-09T01:07:23.979Z,99096.77
2019-02-09T01:12:45.712Z,99086.15
2019-02-09T01:15:53.996Z,99085.18
2019-02-09T01:18:22.376Z,99079.34
2019-02-09T01:21:09.990Z,99077.05
2019-02-09T01:23:38.364Z,99075.38
2019-02-09T01:26:25.849Z,99075.88
2019-02-09T01:28:54.226Z,99068.33
2019-02-09T01:34:33.913Z,99065.22
2019-02-09T01:37:02.283Z,99071.58
2019-02-09T01:39:49.905Z,99070.02
2019-02-09T01:42:18.278Z,99058.89
2019-02-09T01:45:05.779Z,99056.39
2019-02-09T01:47:34.144Z,99059.27
2019-02-09T01:50:21.732Z,99056.50
2019-02-09T01:56:03.940Z,99057.67
2019-02-09T01:58:32.578Z,99047.50
2019-02-09T02:01:00.944Z,99043.94
2019-02-09T02:03:48.573Z,99045.02
2019-02-09T02:06:36.285Z,99041.41
2019-02-09T02:09:44.573Z,99032.22
2019-02-09T02:15:02.023Z,99017.86
2019-02-09T02:17:30.385Z,99007.00
2019-02-09T02:19:58.777Z,99007.35
2019-02-09T02:22:27.150Z,98997.91
2019-02-09T02:27:48.270Z,98986.19
2019-02-09T02:30:56.561Z,98984.42
2019-02-09T02:33:24.935Z,98976.16
2019-02-09T02:35:53.310Z,98969.94
2019-02-09T02:38:21.993Z,98962.53
2019-02-09T02:41:09.715Z,98961.70
2019-02-09T02:43:38.090Z,98957.42
2019-02-09T02:46:25.597Z,98949.87
2019-02-09T02:48:53.978Z,98950.71
2019-02-09T02:51:22.371Z,98950.95
2019-02-09T02:53:50.724Z,98952.99
2019-02-09T02:59:25.875Z,98942.96
2019-02-09T03:02:13.487Z,98937.95
2019-02-09T03:05:01.205Z,98942.14
2019-02-09T03:07:48.732Z,98948.22
2019-02-09T03:10:56.984Z,98947.12
2019-02-09T03:13:25.356Z,98950.23
2019-02-09T03:15:53.729Z,98949.87
2019-02-09T03:18:41.214Z,98946.14
2019-02-09T03:21:09.594Z,98939.58
2019-02-09T03:23:57.220Z,98928.83
2019-02-09T03:26:44.703Z,98924.55
2019-02-09T03:29:13.077Z,98915.94
2019-02-09T03:32:00.695Z,98929.90
2019-02-09T03:34:48.416Z,98926.69
2019-02-09T03:40:44.132Z,98904.84
2019-02-09T03:43:31.743Z,98899.97
2019-02-09T03:46:19.458Z,98910.34
2019-02-09T03:48:47.828Z,98900.52
2019-02-09T03:51:16.200Z,98904.46
2019-02-09T03:54:03.680Z,98902.11
2019-02-09T03:56:51.173Z,98909.86
2019-02-09T03:59:19.889Z,98906.75
2019-02-09T04:01:48.259Z,98905.91
2019-02-09T04:04:16.692Z,98900.18
2019-02-09T04:06:45.063Z,98895.65
2019-02-09T04:09:13.429Z,98900.80
2019-02-09T04:12:01.146Z,98896.36
2019-02-09T04:17:03.449Z,98892.56
2019-02-09T04:19:31.827Z,98900.66
2019-02-09T04:22:19.532Z,98892.43
2019-02-09T04:24:47.913Z,98895.20
2019-02-09T04:27:16.275Z,98903.42
2019-02-09T04:29:44.648Z,98904.25
2019-02-09T04:32:32.365Z,98907.14
2019-02-09T04:35:19.853Z,98904.63
2019-02-09T04:37:48.228Z,98904.27
2019-02-09T04:40:56.513Z,98896.86
2019-02-09T04:43:24.884Z,98890.88
2019-02-09T04:46:12.509Z,98889.93
2019-02-09T04:49:00.358Z,98889.93
2019-02-09T04:51:28.735Z,98894.70
2019-02-09T04:54:16.349Z,98893.77
2019-02-09T04:59:38.270Z,98883.36
2019-02-09T05:02:25.897Z,98885.98
2019-02-09T05:04:54.276Z,98883.13
2019-02-09T05:07:22.640Z,98880.50
2019-02-09T05:10:10.137Z,98886.69
2019-02-09T05:12:38.509Z,98888.27
2019-02-09T05:15:26.224Z,98900.21
2019-02-09T05:17:54.588Z,98905.22
2019-02-09T05:21:02.884Z,98905.70
2019-02-09T05:23:31.253Z,98901.86
2019-02-09T05:26:39.545Z,98896.37
2019-02-09T05:29:07.919Z,98905.22
2019-02-09T05:31:55.550Z,98908.44
2019-02-09T05:34:23.922Z,98901.39
2019-02-09T05:37:11.541Z,98911.30
2019-02-09T05:39:39.934Z,98908.78
2019-02-09T05:42:27.624Z,98913.69
2019-02-09T05:45:35.919Z,98914.17
2019-02-09T05:48:23.409Z,98911.67
2019-02-09T05:50:51.782Z,98913.71
2019-02-09T05:56:26.939Z,98919.32
2019-02-09T05:58:55.302Z,98912.61
2019-02-09T06:01:43.031Z,98911.89
2019-02-09T06:04:30.512Z,98908.08
2019-02-09T06:09:32.552Z,98912.61
2019-02-09T06:12:20.046Z,98921.47
2019-02-09T06:15:07.528Z,98928.62
2019-02-09T06:17:55.024Z,98930.42
2019-02-09T06:21:03.329Z,98934.60
2019-02-09T06:23:31.723Z,98936.26
2019-02-09T06:26:00.369Z,98934.84
2019-02-09T06:28:28.802Z,98940.22
2019-02-09T06:30:57.170Z,98939.61
2019-02-09T06:33:25.548Z,98933.41
2019-02-09T06:35:53.924Z,98946.19
2019-02-09T06:38:41.645Z,98939.38
2019-02-09T06:41:10.026Z,98938.05
2019-02-09T06:43:38.403Z,98939.13
2019-02-09T06:46:06.783Z,98947.17
2019-02-09T06:48:54.267Z,98948.94
2019-02-09T06:53:56.867Z,98955.97
2019-02-09T06:56:44.488Z,98943.69
2019-02-09T06:59:12.856Z,98958.38
2019-02-09T07:02:00.482Z,98959.45
2019-02-09T07:04:28.854Z,98967.13
2019-02-09T07:07:16.473Z,98967.95
2019-02-09T07:10:04.093Z,98964.22
2019-02-09T07:12:32.470Z,98982.38
2019-02-09T07:15:00.831Z,98982.38
2019-02-09T07:17:29.209Z,98984.31
2019-02-09T07:19:57.572Z,98971.87
2019-02-09T07:25:00.318Z,98975.67
2019-02-09T07:30:02.354Z,98982.97
2019-02-09T07:32:30.738Z,98995.66
2019-02-09T07:34:59.101Z,98988.84
2019-02-09T07:37:27.479Z,98991.85
2019-02-09T07:40:14.960Z,98999.50
2019-02-09T07:42:43.333Z,99004.75
2019-02-09T07:45:51.609Z,99000.57
2019-02-09T07:48:19.988Z,99005.34
2019-02-09T07:50:48.367Z,99009.18
2019-02-09T07:53:16.747Z,99017.41
2019-02-09T07:55:45.112Z,99023.50
2019-02-09T07:58:13.484Z,99022.08
2019-02-09T08:01:01.150Z,99010.01
2019-02-09T08:03:48.874Z,99011.94
2019-02-09T08:06:36.484Z,99008.20
2019-02-09T08:09:44.771Z,99010.38
2019-02-09T08:12:13.139Z,99005.72
2019-02-09T08:15:00.752Z,99017.79
2019-02-09T08:17:29.133Z,99036.08
2019-02-09T08:19:57.735Z,99029.75
2019-02-09T08:22:45.235Z,99023.86
2019-02-09T08:25:53.570Z,99032.36
2019-02-09T08:30:56.359Z,99041.09
2019-02-09T08:33:24.738Z,99040.17
2019-02-09T08:36:12.356Z,99046.38
2019-02-09T08:41:14.337Z,99055.42
2019-02-09T08:43:42.724Z,99061.22
2019-02-09T08:49:17.881Z,99058.56
2019-02-09T08:52:05.366Z,99075.20
2019-02-09T08:54:52.994Z,99073.88
2019-02-09T08:57:21.369Z,99063.59
2019-02-09T09:02:56.297Z,99042.14
2019-02-09T09:08:24.410Z,99071.63
2019-02-09T09:11:12.026Z,99069.55
2019-02-09T09:16:14.374Z,99057.20
2019-02-09T09:18:42.753Z,99068.73
2019-02-09T09:21:11.133Z,99066.19
2019-02-09T09:23:39.534Z,99064.91
2019-02-09T09:26:47.800Z,99070.72
2019-02-09T09:29:35.296Z,99072.25
2019-02-09T09:35:51.646Z,99079.73
2019-02-09T09:38:39.147Z,99093.05
2019-02-09T09:41:26.633Z,99092.73
2019-02-09T09:43:55.015Z,99095.16
2019-02-09T09:49:29.956Z,99105.75
2019-02-09T09:51:58.326Z,99113.99
2019-02-09T09:54:45.955Z,99103.72
2019-02-09T09:57:33.574Z,99104.66
2019-02-09T10:00:21.201Z,99126.88
2019-02-09T10:03:29.735Z,99108.92
2019-02-09T10:06:17.223Z,99123.33
2019-02-09T10:08:45.602Z,99123.00
2019-02-09T10:11:33.090Z,99122.38
2019-02-09T10:14:20.729Z,99117.86
2019-02-09T10:19:55.665Z,99128.39
2019-02-09T10:22:43.151Z,99134.42
2019-02-09T10:25:51.437Z,99132.69
2019-02-09T10:28:39.064Z,99137.52
2019-02-09T10:31:26.770Z,99136.91
2019-02-09T10:34:14.388Z,99142.53
2019-02-09T10:36:42.756Z,99140.18
2019-02-09T10:39:11.132Z,99154.52
2019-02-09T10:41:39.503Z,99158.46
2019-02-09T10:47:02.443Z,99135.78
2019-02-09T10:49:50.071Z,99144.56
2019-02-09T10:52:19.164Z,99137.73
2019-02-09T11:00:58.052Z,99144.03
2019-02-09T11:06:14.107Z,99146.52
2019-02-09T11:08:42.483Z,99132.04
2019-02-09T11:11:30.065Z,99131.14
2019-02-09T11:13:58.469Z,99141.58
2019-02-09T11:16:46.082Z,99134.91
2019-02-09T11:19:14.462Z,99125.22
2019-02-09T11:22:02.083Z,99132.32
2019-02-09T11:24:30.468Z,99132.22
2019-02-09T11:26:58.842Z,99144.69
2019-02-09T11:29:27.222Z,99121.74
2019-02-09T11:31:55.606Z,99134.86
2019-02-09T11:34:43.221Z,99135.57
2019-02-09T11:37:11.593Z,99138.05
2019-02-09T11:39:59.085Z,99134.00
2019-02-09T11:42:27.459Z,99125.27
2019-02-09T11:44:56.347Z,99126.56
2019-02-09T11:47:25.940Z,99131.69
2019-02-09T11:49:54.323Z,99129.70
2019-02-09T11:55:50.055Z,99125.17
2019-02-09T11:58:18.438Z,99125.00
2019-02-09T12:01:26.733Z,99137.19
2019-02-09T12:03:55.123Z,99126.58
2019-02-09T12:06:23.502Z,99136.54
2019-02-09T12:09:10.990Z,99140.78
2019-02-09T12:11:39.403Z,99145.66
2019-02-09T12:14:07.744Z,99133.86
2019-02-09T12:16:36.124Z,99139.84
2019-02-09T12:19:44.412Z,99129.34
2019-02-09T12:22:12.785Z,99140.16
2019-02-09T12:24:41.152Z,99134.98
2019-02-09T12:27:09.525Z,99124.66
2019-02-09T12:29:37.894Z,99126.63
2019-02-09T12:37:54.684Z,99134.59
2019-02-09T12:41:02.968Z,99156.98
2019-02-09T12:43:31.330Z,99145.45
2019-02-09T12:45:59.709Z,99144.38
2019-02-09T12:48:28.087Z,99141.23
2019-02-09T12:53:30.841Z,99121.72
2019-02-09T12:55:59.217Z,99143.80
2019-02-09T12:58:27.584Z,99136.60
2019-02-09T13:01:15.086Z,99124.44
2019-02-09T13:03:43.453Z,99129.48
2019-02-09T13:06:31.149Z,99128.95
2019-02-09T13:08:59.522Z,99134.09
2019-02-09T13:11:47.012Z,99132.31
2019-02-09T13:14:15.378Z,99130.88
2019-02-09T13:16:44.006Z,99124.34
2019-02-09T13:19:31.505Z,99128.70
2019-02-09T13:22:19.000Z,99122.48
2019-02-09T13:25:06.492Z,99123.86
2019-02-09T13:27:34.874Z,99130.19
2019-02-09T13:33:51.227Z,99124.23
2019-02-09T13:36:19.600Z,99129.78
2019-02-09T13:38:47.971Z,99106.14
2019-02-09T13:41:16.345Z,99095.64
2019-02-09T13:43:44.721Z,99111.66
2019-02-09T13:46:13.095Z,99123.26
2019-02-09T13:48:41.474Z,99132.48
2019-02-09T13:51:29.089Z,99145.23
2019-02-09T13:54:16.717Z,99153.49
2019-02-09T13:57:04.210Z,99139.80
2019-02-09T14:00:12.490Z,99145.09
2019-02-09T14:03:20.783Z,99139.41
2019-02-09T14:05:49.151Z,99143.33
2019-02-09T14:08:17.526Z,99142.59
2019-02-09T14:11:05.009Z,99144.53
2019-02-09T14:13:33.379Z,99148.27
2019-02-09T14:16:20.865Z,99160.52
2019-02-09T14:18:49.239Z,99158.71
2019-02-09T14:21:17.611Z,99165.54
2019-02-09T14:24:05.100Z,99164.80
2019-02-09T14:26:33.472Z,99165.81
2019-02-09T14:29:21.107Z,99169.13
2019-02-09T14:32:08.599Z,99173.42
2019-02-09T14:34:36.973Z,99168.38
2019-02-09T14:42:39.099Z,99171.16
2019-02-09T14:45:47.376Z,99174.52
2019-02-09T14:53:23.632Z,99181.05
2019-02-09T14:56:11.249Z,99179.02
2019-02-09T14:58:58.872Z,99173.34
2019-02-09T15:01:27.239Z,99183.57
2019-02-09T15:04:02.692Z,99186.00
2019-02-09T15:06:25.697Z,99173.80
2019-02-09T15:09:13.192Z,99167.69
2019-02-09T15:11:41.556Z,99178.70
2019-02-09T15:14:09.939Z,99174.14
2019-02-09T15:19:46.378Z,99169.65
2019-02-09T15:22:33.869Z,99192.13
2019-02-09T15:25:02.240Z,99188.50
2019-02-09T15:27:30.611Z,99192.89
2019-02-09T15:29:58.992Z,99208.36
2019-02-09T15:35:58.631Z,99220.00
2019-02-09T15:38:27.039Z,99231.83
2019-02-09T15:40:55.416Z,99211.25
2019-02-09T15:43:43.040Z,99231.41
2019-02-09T15:46:30.525Z,99237.88
2019-02-09T15:49:18.020Z,99244.80
2019-02-09T15:51:46.384Z,99233.55
2019-02-09T15:54:14.760Z,99231.02
2019-02-09T15:57:02.248Z,99249.58
2019-02-09T15:59:30.630Z,99259.62
2019-02-09T16:01:59.008Z,99275.52
2019-02-09T16:04:27.383Z,99291.71
2019-02-09T16:07:15.001Z,99273.52
2019-02-09T16:09:43.394Z,99290.14
2019-02-09T16:12:30.883Z,99295.14
2019-02-09T16:15:18.378Z,99300.08
2019-02-09T16:18:05.993Z,99299.98
2019-02-09T16:21:14.283Z,99296.33
2019-02-09T16:23:42.653Z,99310.83
2019-02-09T16:26:33.099Z,99314.52
2019-02-09T16:29:01.466Z,99318.59
2019-02-09T16:31:30.085Z,99311.55
2019-02-09T16:34:25.172Z,99322.95
2019-02-09T16:37:06.923Z,99318.00
2019-02-09T16:39:35.316Z,99325.11
2019-02-09T16:45:51.678Z,99327.57
2019-02-09T16:48:20.050Z,99318.38
2019-02-09T16:53:22.857Z,99322.06
2019-02-09T16:55:51.239Z,99332.73
2019-02-09T16:58:38.721Z,99326.77
2019-02-09T17:06:33.866Z,99338.48
2019-02-09T17:11:51.323Z,99339.81
2019-02-09T17:14:38.809Z,99342.98
2019-02-09T17:17:07.194Z,99348.41
2019-02-09T17:19:35.558Z,99353.16
2019-02-09T17:24:58.287Z,99351.75
2019-02-09T17:27:45.788Z,99359.70
2019-02-09T17:30:54.075Z,99365.14
2019-02-09T17:33:41.695Z,99365.98
2019-02-09T17:36:29.192Z,99374.89
2019-02-09T17:39:16.673Z,99378.19
2019-02-09T17:41:45.052Z,99383.39
2019-02-09T17:44:13.427Z,99378.22
2019-02-09T17:46:41.808Z,99394.28
2019-02-09T17:49:31.185Z,99399.73
2019-02-09T17:52:18.826Z,99395.82
2019-02-09T17:54:47.200Z,99407.95
2019-02-09T17:57:34.901Z,99408.53
2019-02-09T18:06:06.391Z,99419.27
2019-02-09T18:08:34.776Z,99419.33
2019-02-09T18:13:37.797Z,99425.20
2019-02-09T18:16:06.175Z,99425.17
2019-02-09T18:18:53.793Z,99423.37
2019-02-09T18:21:22.170Z,99435.78
2019-02-09T18:23:50.542Z,99441.91
2019-02-09T18:26:38.038Z,99440.53
2019-02-09T18:29:06.405Z,99438.67
2019-02-09T18:31:34.786Z,99443.31
2019-02-09T18:34:03.159Z,99444.41
2019-02-09T18:36:31.529Z,99445.14
2019-02-09T18:38:59.922Z,99447.17
2019-02-09T18:41:28.307Z,99454.48
2019-02-09T18:46:30.381Z,99458.88
2019-02-09T18:49:17.873Z,99459.11
2019-02-09T18:52:05.379Z,99478.28
2019-02-09T18:54:33.758Z,99476.50
2019-02-09T18:57:02.142Z,99477.65
2019-02-09T18:59:49.773Z,99465.17
2019-02-09T19:02:38.626Z,99471.14
2019-02-09T19:05:47.553Z,99479.64
2019-02-09T19:08:15.948Z,99485.17
2019-02-09T19:11:03.562Z,99478.02
2019-02-09T19:13:31.945Z,99482.97
2019-02-09T19:16:19.577Z,99488.91
2019-02-09T19:18:47.986Z,99494.68
2019-02-09T19:21:16.353Z,99490.05
2019-02-09T19:24:42.451Z,99496.57
2019-02-09T19:27:10.822Z,99496.47
2019-02-09T19:29:58.317Z,99492.25
2019-02-09T19:32:45.817Z,99491.13
2019-02-09T19:35:54.111Z,99490.16
2019-02-09T19:38:41.609Z,99494.80
2019-02-09T19:41:29.257Z,99496.63
2019-02-09T19:43:57.669Z,99496.68
2019-02-09T19:46:26.051Z,99505.94
2019-02-09T19:49:13.778Z,99502.43
2019-02-09T19:52:01.393Z,99506.41
2019-02-09T19:54:29.846Z,99500.94
2019-02-09T19:57:17.516Z,99508.52
2019-02-09T19:59:45.894Z,99506.57
2019-02-09T20:02:33.514Z,99502.84
2019-02-09T20:07:55.560Z,99508.46
2019-02-09T20:11:03.896Z,99518.67
2019-02-09T20:16:06.832Z,99519.35
2019-02-09T20:18:35.216Z,99516.57
2019-02-09T20:21:03.585Z,99518.81
2019-02-09T20:23:51.094Z,99521.20
2019-02-09T20:26:38.583Z,99523.48
2019-02-09T20:29:26.209Z,99524.33
2019-02-09T20:32:13.829Z,99530.50
2019-02-09T20:35:01.469Z,99536.89
2019-02-09T20:37:48.953Z,99533.06
2019-02-09T20:40:55.918Z,99531.36
2019-02-09T20:43:24.304Z,99533.58
2019-02-09T20:45:52.730Z,99537.52
2019-02-09T20:48:40.238Z,99530.37
2019-02-09T20:51:08.630Z,99543.72
2019-02-09T20:53:56.153Z,99530.95
2019-02-09T20:56:24.560Z,99546.41
2019-02-09T20:59:12.187Z,99541.83
2019-02-09T21:01:59.715Z,99539.13
2019-02-09T21:04:28.078Z,99539.52
2019-02-09T21:09:43.889Z,99543.91
2019-02-09T21:12:12.280Z,99540.56
2019-02-09T21:14:40.700Z,99543.36
2019-02-09T21:17:09.074Z,99545.20
2019-02-09T21:19:37.725Z,99548.66
2019-02-09T21:22:45.963Z,99557.42
2019-02-09T21:25:54.367Z,99552.52
2019-02-09T21:28:41.981Z,99550.87
2019-02-09T21:31:10.366Z,99561.52
2019-02-09T21:33:58.081Z,99562.67
2019-02-09T21:36:45.777Z,99559.42
2019-02-09T21:39:34.117Z,99563.68
2019-02-09T21:42:22.954Z,99563.46
2019-02-09T21:44:51.347Z,99565.53
2019-02-09T21:47:38.838Z,99556.89
2019-02-09T21:50:47.127Z,99570.22
2019-02-09T21:53:34.747Z,99566.97
2019-02-09T21:56:03.131Z,99562.11
2019-02-09T21:58:50.751Z,99568.55
2019-02-09T22:01:19.135Z,99558.16
2019-02-09T22:03:47.578Z,99569.52
2019-02-09T22:06:15.959Z,99569.07
2019-02-09T22:08:44.408Z,99565.13
2019-02-09T22:11:12.981Z,99552.07
2019-02-09T22:13:41.378Z,99558.20
2019-02-09T22:19:03.287Z,99558.34
2019-02-09T22:21:51.270Z,99560.63
2019-02-09T22:24:21.030Z,99561.80
2019-02-09T22:27:08.748Z,99551.02
2019-02-09T22:29:57.919Z,99553.20
2019-02-09T22:32:26.333Z,99554.20
2019-02-09T22:35:13.981Z,99550.70
2019-02-09T22:38:01.678Z,99548.95
2019-02-09T22:41:09.977Z,99560.90
2019-02-09T22:46:25.809Z,99559.94
2019-02-09T22:48:54.184Z,99559.55
2019-02-09T22:53:57.187Z,99551.36
2019-02-09T22:59:00.096Z,99560.03
2019-02-09T23:01:47.995Z,99554.33
2019-02-09T23:04:56.279Z,99550.33
2019-02-09T23:07:24.656Z,99547.91
2019-02-09T23:10:12.278Z,99554.80
2019-02-09T23:12:59.982Z,99550.19
2019-02-09T23:15:47.600Z,99556.75
2019-02-09T23:18:35.348Z,99563.98
2019-02-09T23:21:03.723Z,99561.29
2019-02-09T23:23:54.574Z,99556.42
2019-02-09T23:26:42.204Z,99557.58
2019-02-09T23:29:29.824Z,99562.81
2019-02-09T23:31:58.225Z,99561.41
2019-02-09T23:34:26.601Z,99551.37
2019-02-09T23:36:54.980Z,99568.42
2019-02-09T23:39:23.403Z,99566.87
2019-02-09T23:42:11.134Z,99561.11
2019-02-09T23:44:39.504Z,99562.39
2019-02-09T23:49:42.094Z,99558.37
2019-02-09T23:52:10.723Z,99560.63
2019-02-09T23:57:32.243Z,99562.03
